sensor_id;sensor_type;location;lat;lon;timestamp;temperature;humidity
5779;DHT22;2916;49.798;10.022;2023-02-01T00:01:11;4.80;99.90
5779;DHT22;2916;49.798;10.022;2023-02-01T00:03:38;4.80;99.90
5779;DHT22;2916;49.798;10.022;2023-02-01T00:06:05;4.80;99.90
5779;DHT22;2916;49.798;10.022;2023-02-01T00:08:32;4.80;99.90
5779;DHT22;2916;49.798;10.022;2023-02-01T00:11:00;4.90;99.90
5779;DHT22;2916;49.798;10.022;2023-02-01T00:13:28;4.90;99.90
5779;DHT22;2916;49.798;10.022;2023-02-01T00:16:04;4.90;99.90
5779;DHT22;2916;49.798;10.022;2023-02-01T00:18:31;4.90;99.90
5779;DHT22;2916;49.798;10.022;2023-02-01T00:20:58;4.90;99.90
5779;DHT22;2916;49.798;10.022;2023-02-01T00:23:25;4.80;99.90
5779;DHT22;2916;49.798;10.022;2023-02-01T00:25:52;4.80;99.90
5779;DHT22;2916;49.798;10.022;2023-02-01T00:28:19;4.90;99.90
5779;DHT22;2916;49.798;10.022;2023-02-01T00:30:46;4.90;99.90
5779;DHT22;2916;49.798;10.022;2023-02-01T00:33:15;4.90;99.90
5779;DHT22;2916;49.798;10.022;2023-02-01T00:35:42;4.90;99.90
5779;DHT22;2916;49.798;10.022;2023-02-01T00:38:08;4.90;99.90
5779;DHT22;2916;49.798;10.022;2023-02-01T00:40:35;4.90;99.90
5779;DHT22;2916;49.798;10.022;2023-02-01T00:43:02;4.80;99.90
5779;DHT22;2916;49.798;10.022;2023-02-01T00:45:29;4.80;99.90
5779;DHT22;2916;49.798;10.022;2023-02-01T00:47:56;4.80;99.90
5779;DHT22;2916;49.798;10.022;2023-02-01T00:50:24;4.80;99.90
5779;DHT22;2916;49.798;10.022;2023-02-01T00:52:51;4.80;99.90
5779;DHT22;2916;49.798;10.022;2023-02-01T00:55:18;4.80;99.90
5779;DHT22;2916;49.798;10.022;2023-02-01T00:57:45;4.90;99.90
5779;DHT22;2916;49.798;10.022;2023-02-01T01:00:13;4.90;99.90
5779;DHT22;2916;49.798;10.022;2023-02-01T01:02:40;4.90;99.90
5779;DHT22;2916;49.798;10.022;2023-02-01T01:05:07;4.90;99.90
5779;DHT22;2916;49.798;10.022;2023-02-01T01:07:36;4.90;99.90
5779;DHT22;2916;49.798;10.022;2023-02-01T01:10:03;4.90;99.90
5779;DHT22;2916;49.798;10.022;2023-02-01T01:12:30;4.90;99.90
5779;DHT22;2916;49.798;10.022;2023-02-01T01:14:57;4.90;99.90
5779;DHT22;2916;49.798;10.022;2023-02-01T01:17:24;4.90;99.90
5779;DHT22;2916;49.798;10.022;2023-02-01T01:19:51;4.90;99.90
5779;DHT22;2916;49.798;10.022;2023-02-01T01:22:18;5.00;99.90
5779;DHT22;2916;49.798;10.022;2023-02-01T01:24:46;5.00;99.90
5779;DHT22;2916;49.798;10.022;2023-02-01T01:27:13;5.00;99.90
5779;DHT22;2916;49.798;10.022;2023-02-01T01:29:40;5.00;99.90
5779;DHT22;2916;49.798;10.022;2023-02-01T01:32:07;5.00;99.90
5779;DHT22;2916;49.798;10.022;2023-02-01T01:34:34;5.10;99.90
5779;DHT22;2916;49.798;10.022;2023-02-01T01:37:01;5.00;99.90
5779;DHT22;2916;49.798;10.022;2023-02-01T01:39:29;4.90;99.90
5779;DHT22;2916;49.798;10.022;2023-02-01T01:41:58;4.90;99.90
5779;DHT22;2916;49.798;10.022;2023-02-01T01:44:59;4.90;99.90
5779;DHT22;2916;49.798;10.022;2023-02-01T01:47:31;4.90;99.90
5779;DHT22;2916;49.798;10.022;2023-02-01T01:50:01;4.90;99.90
5779;DHT22;2916;49.798;10.022;2023-02-01T01:52:28;4.80;99.90
5779;DHT22;2916;49.798;10.022;2023-02-01T01:54:55;4.80;99.90
5779;DHT22;2916;49.798;10.022;2023-02-01T01:57:28;4.90;99.90
5779;DHT22;2916;49.798;10.022;2023-02-01T02:00:01;4.90;99.90
5779;DHT22;2916;49.798;10.022;2023-02-01T02:02:29;4.90;99.90
5779;DHT22;2916;49.798;10.022;2023-02-01T02:04:56;4.90;99.90
5779;DHT22;2916;49.798;10.022;2023-02-01T02:07:26;4.90;99.90
5779;DHT22;2916;49.798;10.022;2023-02-01T02:09:55;4.90;99.90
5779;DHT22;2916;49.798;10.022;2023-02-01T02:12:22;4.90;99.90
5779;DHT22;2916;49.798;10.022;2023-02-01T02:14:50;4.90;99.90
5779;DHT22;2916;49.798;10.022;2023-02-01T02:17:30;4.90;99.90
5779;DHT22;2916;49.798;10.022;2023-02-01T02:20:42;5.00;99.90
5779;DHT22;2916;49.798;10.022;2023-02-01T02:35:26;5.00;99.90
5779;DHT22;2916;49.798;10.022;2023-02-01T02:38:02;5.00;99.90
5779;DHT22;2916;49.798;10.022;2023-02-01T02:40:36;5.00;99.90
5779;DHT22;2916;49.798;10.022;2023-02-01T02:43:11;5.00;99.90
5779;DHT22;2916;49.798;10.022;2023-02-01T02:46:02;5.00;99.90
5779;DHT22;2916;49.798;10.022;2023-02-01T02:49:02;5.00;99.90
5779;DHT22;2916;49.798;10.022;2023-02-01T02:51:36;5.00;99.90
5779;DHT22;2916;49.798;10.022;2023-02-01T02:54:23;5.00;99.90
5779;DHT22;2916;49.798;10.022;2023-02-01T02:57:10;5.00;99.90
5779;DHT22;2916;49.798;10.022;2023-02-01T02:59:56;5.00;99.90
5779;DHT22;2916;49.798;10.022;2023-02-01T03:02:41;5.00;99.90
5779;DHT22;2916;49.798;10.022;2023-02-01T03:05:32;5.00;99.90
5779;DHT22;2916;49.798;10.022;2023-02-01T03:08:10;4.90;99.90
5779;DHT22;2916;49.798;10.022;2023-02-01T03:10:53;4.90;99.90
5779;DHT22;2916;49.798;10.022;2023-02-01T03:13:33;4.90;99.90
5779;DHT22;2916;49.798;10.022;2023-02-01T03:16:06;4.90;99.90
5779;DHT22;2916;49.798;10.022;2023-02-01T03:18:37;4.90;99.90
5779;DHT22;2916;49.798;10.022;2023-02-01T03:21:11;4.80;99.90
5779;DHT22;2916;49.798;10.022;2023-02-01T03:23:41;4.80;99.90
5779;DHT22;2916;49.798;10.022;2023-02-01T03:26:11;4.80;99.90
5779;DHT22;2916;49.798;10.022;2023-02-01T03:28:44;4.80;99.90
5779;DHT22;2916;49.798;10.022;2023-02-01T03:31:13;4.80;99.90
5779;DHT22;2916;49.798;10.022;2023-02-01T03:33:40;4.70;99.90
5779;DHT22;2916;49.798;10.022;2023-02-01T03:36:15;4.70;99.90
5779;DHT22;2916;49.798;10.022;2023-02-01T03:38:50;4.70;99.90
5779;DHT22;2916;49.798;10.022;2023-02-01T03:41:23;4.70;99.90
5779;DHT22;2916;49.798;10.022;2023-02-01T03:43:54;4.70;99.90
5779;DHT22;2916;49.798;10.022;2023-02-01T03:46:27;4.70;99.90
5779;DHT22;2916;49.798;10.022;2023-02-01T03:49:00;4.80;99.90
5779;DHT22;2916;49.798;10.022;2023-02-01T03:51:29;4.70;99.90
5779;DHT22;2916;49.798;10.022;2023-02-01T03:53:59;4.70;99.90
5779;DHT22;2916;49.798;10.022;2023-02-01T03:56:27;4.70;99.90
5779;DHT22;2916;49.798;10.022;2023-02-01T03:58:55;4.70;99.90
5779;DHT22;2916;49.798;10.022;2023-02-01T04:01:27;4.70;99.90
5779;DHT22;2916;49.798;10.022;2023-02-01T04:03:54;4.60;99.90
5779;DHT22;2916;49.798;10.022;2023-02-01T04:06:22;4.60;99.90
5779;DHT22;2916;49.798;10.022;2023-02-01T04:08:49;4.60;99.90
5779;DHT22;2916;49.798;10.022;2023-02-01T04:11:18;4.70;99.90
5779;DHT22;2916;49.798;10.022;2023-02-01T04:13:45;4.60;99.90
5779;DHT22;2916;49.798;10.022;2023-02-01T04:16:12;4.60;99.90
5779;DHT22;2916;49.798;10.022;2023-02-01T04:18:39;4.60;99.90
5779;DHT22;2916;49.798;10.022;2023-02-01T04:21:06;4.60;99.90
5779;DHT22;2916;49.798;10.022;2023-02-01T04:23:33;4.60;99.90
5779;DHT22;2916;49.798;10.022;2023-02-01T04:26:02;4.60;99.90
5779;DHT22;2916;49.798;10.022;2023-02-01T04:28:31;4.60;99.90
5779;DHT22;2916;49.798;10.022;2023-02-01T04:30:58;4.50;99.90
5779;DHT22;2916;49.798;10.022;2023-02-01T04:33:25;4.50;99.90
5779;DHT22;2916;49.798;10.022;2023-02-01T04:35:52;4.50;99.90
5779;DHT22;2916;49.798;10.022;2023-02-01T04:38:19;4.50;99.90
5779;DHT22;2916;49.798;10.022;2023-02-01T04:40:47;4.50;99.90
5779;DHT22;2916;49.798;10.022;2023-02-01T04:43:15;4.50;99.90
5779;DHT22;2916;49.798;10.022;2023-02-01T04:45:46;4.60;99.90
5779;DHT22;2916;49.798;10.022;2023-02-01T04:48:14;4.50;99.90
5779;DHT22;2916;49.798;10.022;2023-02-01T04:50:41;4.40;99.90
5779;DHT22;2916;49.798;10.022;2023-02-01T04:53:08;4.40;99.90
5779;DHT22;2916;49.798;10.022;2023-02-01T04:55:35;4.40;99.90
5779;DHT22;2916;49.798;10.022;2023-02-01T04:58:02;4.40;99.90
5779;DHT22;2916;49.798;10.022;2023-02-01T05:00:29;4.40;99.90
5779;DHT22;2916;49.798;10.022;2023-02-01T05:02:57;4.40;99.90
5779;DHT22;2916;49.798;10.022;2023-02-01T05:05:24;4.40;99.90
5779;DHT22;2916;49.798;10.022;2023-02-01T05:07:51;4.40;99.90
5779;DHT22;2916;49.798;10.022;2023-02-01T05:10:18;4.40;99.90
5779;DHT22;2916;49.798;10.022;2023-02-01T05:12:45;4.30;99.90
5779;DHT22;2916;49.798;10.022;2023-02-01T05:15:29;4.30;99.90
5779;DHT22;2916;49.798;10.022;2023-02-01T05:17:58;4.30;99.90
5779;DHT22;2916;49.798;10.022;2023-02-01T05:20:25;4.30;99.90
5779;DHT22;2916;49.798;10.022;2023-02-01T05:22:52;4.30;99.90
5779;DHT22;2916;49.798;10.022;2023-02-01T05:25:19;4.30;99.90
5779;DHT22;2916;49.798;10.022;2023-02-01T05:27:46;4.30;99.90
5779;DHT22;2916;49.798;10.022;2023-02-01T05:30:13;4.20;99.90
5779;DHT22;2916;49.798;10.022;2023-02-01T05:32:40;4.20;99.90
5779;DHT22;2916;49.798;10.022;2023-02-01T05:35:09;4.20;99.90
5779;DHT22;2916;49.798;10.022;2023-02-01T05:37:36;4.10;99.90
5779;DHT22;2916;49.798;10.022;2023-02-01T05:40:03;4.10;99.90
5779;DHT22;2916;49.798;10.022;2023-02-01T05:42:30;4.10;99.90
5779;DHT22;2916;49.798;10.022;2023-02-01T05:44:57;4.10;99.90
5779;DHT22;2916;49.798;10.022;2023-02-01T05:47:24;4.10;99.90
5779;DHT22;2916;49.798;10.022;2023-02-01T05:49:51;4.10;99.90
5779;DHT22;2916;49.798;10.022;2023-02-01T05:52:20;4.10;99.90
5779;DHT22;2916;49.798;10.022;2023-02-01T05:54:48;4.10;99.90
5779;DHT22;2916;49.798;10.022;2023-02-01T05:57:15;4.10;99.90
5779;DHT22;2916;49.798;10.022;2023-02-01T05:59:42;4.10;99.90
5779;DHT22;2916;49.798;10.022;2023-02-01T06:02:11;4.10;99.90
5779;DHT22;2916;49.798;10.022;2023-02-01T06:04:38;4.10;99.90
5779;DHT22;2916;49.798;10.022;2023-02-01T06:07:06;4.10;99.90
5779;DHT22;2916;49.798;10.022;2023-02-01T06:09:36;4.20;99.90
5779;DHT22;2916;49.798;10.022;2023-02-01T06:12:03;4.20;99.90
5779;DHT22;2916;49.798;10.022;2023-02-01T06:14:30;4.20;99.90
5779;DHT22;2916;49.798;10.022;2023-02-01T06:16:57;4.20;99.90
5779;DHT22;2916;49.798;10.022;2023-02-01T06:19:25;4.20;99.90
5779;DHT22;2916;49.798;10.022;2023-02-01T06:21:52;4.20;99.90
5779;DHT22;2916;49.798;10.022;2023-02-01T06:24:19;4.20;99.90
5779;DHT22;2916;49.798;10.022;2023-02-01T06:26:47;4.30;99.90
5779;DHT22;2916;49.798;10.022;2023-02-01T06:29:14;4.30;99.90
5779;DHT22;2916;49.798;10.022;2023-02-01T06:31:41;4.30;99.90
5779;DHT22;2916;49.798;10.022;2023-02-01T06:34:09;4.30;99.90
5779;DHT22;2916;49.798;10.022;2023-02-01T06:36:36;4.30;99.90
5779;DHT22;2916;49.798;10.022;2023-02-01T06:39:03;4.40;99.90
5779;DHT22;2916;49.798;10.022;2023-02-01T06:41:30;4.40;99.90
5779;DHT22;2916;49.798;10.022;2023-02-01T06:43:58;4.30;99.90
5779;DHT22;2916;49.798;10.022;2023-02-01T06:46:25;4.30;99.90
5779;DHT22;2916;49.798;10.022;2023-02-01T06:48:52;4.30;99.90
5779;DHT22;2916;49.798;10.022;2023-02-01T06:51:21;4.30;99.90
5779;DHT22;2916;49.798;10.022;2023-02-01T06:53:48;4.30;99.90
5779;DHT22;2916;49.798;10.022;2023-02-01T06:56:15;4.30;99.90
5779;DHT22;2916;49.798;10.022;2023-02-01T06:58:42;4.30;99.90
5779;DHT22;2916;49.798;10.022;2023-02-01T07:01:11;4.40;99.90
5779;DHT22;2916;49.798;10.022;2023-02-01T07:03:38;4.40;99.90
5779;DHT22;2916;49.798;10.022;2023-02-01T07:06:06;4.40;99.90
5779;DHT22;2916;49.798;10.022;2023-02-01T07:08:35;4.40;99.90
5779;DHT22;2916;49.798;10.022;2023-02-01T07:11:03;4.40;99.90
5779;DHT22;2916;49.798;10.022;2023-02-01T07:13:30;4.40;99.90
5779;DHT22;2916;49.798;10.022;2023-02-01T07:16:00;4.40;99.90
5779;DHT22;2916;49.798;10.022;2023-02-01T07:18:29;4.40;99.90
5779;DHT22;2916;49.798;10.022;2023-02-01T07:20:56;4.40;99.90
5779;DHT22;2916;49.798;10.022;2023-02-01T07:23:24;4.40;99.90
5779;DHT22;2916;49.798;10.022;2023-02-01T07:25:54;4.40;99.90
5779;DHT22;2916;49.798;10.022;2023-02-01T07:28:21;4.40;99.90
5779;DHT22;2916;49.798;10.022;2023-02-01T07:30:48;4.40;99.90
5779;DHT22;2916;49.798;10.022;2023-02-01T07:33:17;4.40;99.90
5779;DHT22;2916;49.798;10.022;2023-02-01T07:35:46;4.50;99.90
5779;DHT22;2916;49.798;10.022;2023-02-01T07:38:14;4.50;99.90
5779;DHT22;2916;49.798;10.022;2023-02-01T07:40:41;4.50;99.90
5779;DHT22;2916;49.798;10.022;2023-02-01T07:43:08;4.50;99.90
5779;DHT22;2916;49.798;10.022;2023-02-01T07:45:36;4.60;99.90
5779;DHT22;2916;49.798;10.022;2023-02-01T07:48:04;4.60;99.90
5779;DHT22;2916;49.798;10.022;2023-02-01T07:50:31;4.60;99.90
5779;DHT22;2916;49.798;10.022;2023-02-01T07:53:00;4.60;99.90
5779;DHT22;2916;49.798;10.022;2023-02-01T07:55:27;4.60;99.90
5779;DHT22;2916;49.798;10.022;2023-02-01T07:57:57;4.70;99.90
5779;DHT22;2916;49.798;10.022;2023-02-01T08:00:24;4.80;99.90
5779;DHT22;2916;49.798;10.022;2023-02-01T08:03:09;4.80;99.90
5779;DHT22;2916;49.798;10.022;2023-02-01T08:05:35;4.90;99.90
5779;DHT22;2916;49.798;10.022;2023-02-01T08:08:05;4.90;99.90
5779;DHT22;2916;49.798;10.022;2023-02-01T08:10:33;4.80;99.90
5779;DHT22;2916;49.798;10.022;2023-02-01T08:13:00;4.90;99.90
5779;DHT22;2916;49.798;10.022;2023-02-01T08:15:28;4.90;99.90
5779;DHT22;2916;49.798;10.022;2023-02-01T08:17:56;5.00;99.90
5779;DHT22;2916;49.798;10.022;2023-02-01T08:20:24;5.00;99.90
5779;DHT22;2916;49.798;10.022;2023-02-01T08:22:52;5.10;99.90
5779;DHT22;2916;49.798;10.022;2023-02-01T08:25:21;5.20;99.90
5779;DHT22;2916;49.798;10.022;2023-02-01T08:27:49;5.30;99.90
5779;DHT22;2916;49.798;10.022;2023-02-01T08:30:16;5.40;99.90
5779;DHT22;2916;49.798;10.022;2023-02-01T08:32:43;5.50;99.90
5779;DHT22;2916;49.798;10.022;2023-02-01T08:35:10;5.50;99.90
5779;DHT22;2916;49.798;10.022;2023-02-01T08:37:37;5.70;99.90
5779;DHT22;2916;49.798;10.022;2023-02-01T08:40:05;5.70;99.90
5779;DHT22;2916;49.798;10.022;2023-02-01T08:42:33;5.90;99.90
5779;DHT22;2916;49.798;10.022;2023-02-01T08:45:20;6.00;99.90
5779;DHT22;2916;49.798;10.022;2023-02-01T08:47:47;6.00;99.90
5779;DHT22;2916;49.798;10.022;2023-02-01T08:50:14;6.10;99.90
5779;DHT22;2916;49.798;10.022;2023-02-01T08:52:42;6.10;99.90
5779;DHT22;2916;49.798;10.022;2023-02-01T08:55:09;6.20;99.90
5779;DHT22;2916;49.798;10.022;2023-02-01T08:57:38;6.10;99.90
5779;DHT22;2916;49.798;10.022;2023-02-01T09:00:07;6.10;99.90
5779;DHT22;2916;49.798;10.022;2023-02-01T09:02:35;6.00;99.90
5779;DHT22;2916;49.798;10.022;2023-02-01T09:05:02;6.00;99.90
5779;DHT22;2916;49.798;10.022;2023-02-01T09:07:29;5.90;99.90
5779;DHT22;2916;49.798;10.022;2023-02-01T09:09:56;5.90;99.90
5779;DHT22;2916;49.798;10.022;2023-02-01T09:12:27;5.90;99.90
5779;DHT22;2916;49.798;10.022;2023-02-01T09:14:55;5.90;99.90
5779;DHT22;2916;49.798;10.022;2023-02-01T09:17:22;5.90;99.90
5779;DHT22;2916;49.798;10.022;2023-02-01T09:19:49;5.90;99.90
5779;DHT22;2916;49.798;10.022;2023-02-01T09:22:16;6.00;99.90
5779;DHT22;2916;49.798;10.022;2023-02-01T09:24:44;6.00;99.90
5779;DHT22;2916;49.798;10.022;2023-02-01T09:27:11;5.90;99.90
5779;DHT22;2916;49.798;10.022;2023-02-01T09:29:37;5.90;99.90
5779;DHT22;2916;49.798;10.022;2023-02-01T09:32:07;5.90;99.90
5779;DHT22;2916;49.798;10.022;2023-02-01T09:34:34;5.90;99.90
5779;DHT22;2916;49.798;10.022;2023-02-01T09:37:02;5.90;99.90
5779;DHT22;2916;49.798;10.022;2023-02-01T09:39:29;5.90;99.90
5779;DHT22;2916;49.798;10.022;2023-02-01T09:42:02;5.90;99.90
5779;DHT22;2916;49.798;10.022;2023-02-01T09:45:02;5.90;99.90
5779;DHT22;2916;49.798;10.022;2023-02-01T09:47:32;5.90;99.90
5779;DHT22;2916;49.798;10.022;2023-02-01T09:50:04;6.00;99.90
5779;DHT22;2916;49.798;10.022;2023-02-01T09:52:36;6.00;99.90
5779;DHT22;2916;49.798;10.022;2023-02-01T09:55:10;6.00;99.90
5779;DHT22;2916;49.798;10.022;2023-02-01T09:57:45;5.90;99.90
5779;DHT22;2916;49.798;10.022;2023-02-01T10:00:19;6.00;99.90
5779;DHT22;2916;49.798;10.022;2023-02-01T10:02:50;5.90;99.90
5779;DHT22;2916;49.798;10.022;2023-02-01T10:05:24;5.90;99.90
5779;DHT22;2916;49.798;10.022;2023-02-01T10:08:04;5.90;99.90
5779;DHT22;2916;49.798;10.022;2023-02-01T10:10:35;5.90;99.90
5779;DHT22;2916;49.798;10.022;2023-02-01T10:13:30;6.00;99.90
5779;DHT22;2916;49.798;10.022;2023-02-01T10:16:10;6.00;99.90
5779;DHT22;2916;49.798;10.022;2023-02-01T10:19:15;6.00;99.90
5779;DHT22;2916;49.798;10.022;2023-02-01T10:21:53;6.00;99.90
5779;DHT22;2916;49.798;10.022;2023-02-01T10:24:32;6.10;99.90
5779;DHT22;2916;49.798;10.022;2023-02-01T10:27:06;6.10;99.90
5779;DHT22;2916;49.798;10.022;2023-02-01T10:29:37;6.10;99.90
5779;DHT22;2916;49.798;10.022;2023-02-01T10:32:12;6.20;99.90
5779;DHT22;2916;49.798;10.022;2023-02-01T10:34:41;6.20;99.90
5779;DHT22;2916;49.798;10.022;2023-02-01T10:37:24;6.30;99.90
5779;DHT22;2916;49.798;10.022;2023-02-01T10:39:54;6.40;99.90
5779;DHT22;2916;49.798;10.022;2023-02-01T10:42:24;6.40;99.90
5779;DHT22;2916;49.798;10.022;2023-02-01T10:44:53;6.50;99.90
5779;DHT22;2916;49.798;10.022;2023-02-01T10:47:20;6.70;99.90
5779;DHT22;2916;49.798;10.022;2023-02-01T10:49:54;6.60;99.90
5779;DHT22;2916;49.798;10.022;2023-02-01T10:52:34;6.60;99.90
5779;DHT22;2916;49.798;10.022;2023-02-01T10:55:29;6.50;99.90
5779;DHT22;2916;49.798;10.022;2023-02-01T10:57:58;6.40;99.90
5779;DHT22;2916;49.798;10.022;2023-02-01T11:00:26;6.50;99.90
5779;DHT22;2916;49.798;10.022;2023-02-01T11:02:54;6.40;99.90
5779;DHT22;2916;49.798;10.022;2023-02-01T11:05:24;6.60;99.90
5779;DHT22;2916;49.798;10.022;2023-02-01T11:07:54;6.60;99.90
5779;DHT22;2916;49.798;10.022;2023-02-01T11:10:38;6.60;99.90
5779;DHT22;2916;49.798;10.022;2023-02-01T11:13:13;6.50;99.90
5779;DHT22;2916;49.798;10.022;2023-02-01T11:15:44;6.50;99.90
5779;DHT22;2916;49.798;10.022;2023-02-01T11:18:17;6.50;99.90
5779;DHT22;2916;49.798;10.022;2023-02-01T11:20:47;6.50;99.90
5779;DHT22;2916;49.798;10.022;2023-02-01T11:23:18;6.50;99.90
5779;DHT22;2916;49.798;10.022;2023-02-01T11:25:51;6.60;99.90
5779;DHT22;2916;49.798;10.022;2023-02-01T11:28:21;6.60;99.90
5779;DHT22;2916;49.798;10.022;2023-02-01T11:30:51;6.60;99.90
5779;DHT22;2916;49.798;10.022;2023-02-01T11:33:24;6.60;99.90
5779;DHT22;2916;49.798;10.022;2023-02-01T11:35:56;6.70;99.90
5779;DHT22;2916;49.798;10.022;2023-02-01T11:38:28;6.90;99.90
5779;DHT22;2916;49.798;10.022;2023-02-01T11:41:13;7.20;99.90
5779;DHT22;2916;49.798;10.022;2023-02-01T11:43:57;7.40;99.90
5779;DHT22;2916;49.798;10.022;2023-02-01T11:46:28;7.70;99.90
5779;DHT22;2916;49.798;10.022;2023-02-01T11:48:57;7.60;99.90
5779;DHT22;2916;49.798;10.022;2023-02-01T11:51:49;7.60;99.90
5779;DHT22;2916;49.798;10.022;2023-02-01T11:54:28;7.60;99.90
5779;DHT22;2916;49.798;10.022;2023-02-01T11:57:06;7.60;99.90
5779;DHT22;2916;49.798;10.022;2023-02-01T12:05:36;7.50;77.50
5779;DHT22;2916;49.798;10.022;2023-02-01T12:11:40;7.40;65.50
5779;DHT22;2916;49.798;10.022;2023-02-01T12:14:32;7.40;66.00
5779;DHT22;2916;49.798;10.022;2023-02-01T12:17:19;7.30;67.90
5779;DHT22;2916;49.798;10.022;2023-02-01T12:20:01;7.20;65.80
5779;DHT22;2916;49.798;10.022;2023-02-01T12:22:40;7.20;68.80
5779;DHT22;2916;49.798;10.022;2023-02-01T12:25:21;7.20;69.70
5779;DHT22;2916;49.798;10.022;2023-02-01T12:28:10;7.10;58.50
5779;DHT22;2916;49.798;10.022;2023-02-01T12:34:04;7.10;73.20
5779;DHT22;2916;49.798;10.022;2023-02-01T12:36:40;7.20;77.60
5779;DHT22;2916;49.798;10.022;2023-02-01T12:39:21;7.10;67.30
5779;DHT22;2916;49.798;10.022;2023-02-01T12:41:54;7.10;68.40
5779;DHT22;2916;49.798;10.022;2023-02-01T12:44:34;7.10;65.70
5779;DHT22;2916;49.798;10.022;2023-02-01T12:47:05;7.00;65.00
5779;DHT22;2916;49.798;10.022;2023-02-01T12:49:41;7.00;65.90
5779;DHT22;2916;49.798;10.022;2023-02-01T12:52:15;7.00;73.20
5779;DHT22;2916;49.798;10.022;2023-02-01T12:54:46;7.00;74.10
5779;DHT22;2916;49.798;10.022;2023-02-01T12:57:18;7.00;75.10
5779;DHT22;2916;49.798;10.022;2023-02-01T12:59:55;7.00;79.40
5779;DHT22;2916;49.798;10.022;2023-02-01T13:02:29;7.00;75.90
5779;DHT22;2916;49.798;10.022;2023-02-01T13:05:03;7.00;81.90
5779;DHT22;2916;49.798;10.022;2023-02-01T13:07:36;7.10;72.80
5779;DHT22;2916;49.798;10.022;2023-02-01T13:10:11;7.00;70.70
5779;DHT22;2916;49.798;10.022;2023-02-01T13:12:44;7.10;64.30
5779;DHT22;2916;49.798;10.022;2023-02-01T13:15:17;7.10;70.60
5779;DHT22;2916;49.798;10.022;2023-02-01T13:17:47;7.10;75.80
5779;DHT22;2916;49.798;10.022;2023-02-01T13:20:19;7.00;78.00
5779;DHT22;2916;49.798;10.022;2023-02-01T13:22:51;7.00;73.00
5779;DHT22;2916;49.798;10.022;2023-02-01T13:25:28;6.90;71.50
5779;DHT22;2916;49.798;10.022;2023-02-01T13:28:00;6.90;76.00
5779;DHT22;2916;49.798;10.022;2023-02-01T13:30:38;7.00;75.00
5779;DHT22;2916;49.798;10.022;2023-02-01T13:33:26;6.90;75.40
5779;DHT22;2916;49.798;10.022;2023-02-01T13:36:20;6.90;75.00
5779;DHT22;2916;49.798;10.022;2023-02-01T13:41:53;6.90;74.50
5779;DHT22;2916;49.798;10.022;2023-02-01T13:44:26;6.80;71.30
5779;DHT22;2916;49.798;10.022;2023-02-01T13:46:58;6.80;75.00
5779;DHT22;2916;49.798;10.022;2023-02-01T13:49:28;6.80;78.70
5779;DHT22;2916;49.798;10.022;2023-02-01T13:51:57;6.70;77.70
5779;DHT22;2916;49.798;10.022;2023-02-01T13:54:28;6.80;78.70
5779;DHT22;2916;49.798;10.022;2023-02-01T13:56:55;6.70;80.20
5779;DHT22;2916;49.798;10.022;2023-02-01T13:59:49;6.60;73.70
5779;DHT22;2916;49.798;10.022;2023-02-01T14:06:02;6.70;77.50
5779;DHT22;2916;49.798;10.022;2023-02-01T14:08:41;6.70;78.20
5779;DHT22;2916;49.798;10.022;2023-02-01T14:11:37;6.70;76.00
5779;DHT22;2916;49.798;10.022;2023-02-01T14:14:38;6.70;76.60
5779;DHT22;2916;49.798;10.022;2023-02-01T14:17:37;6.60;71.40
5779;DHT22;2916;49.798;10.022;2023-02-01T14:23:28;6.60;70.00
5779;DHT22;2916;49.798;10.022;2023-02-01T14:26:13;6.60;68.90
5779;DHT22;2916;49.798;10.022;2023-02-01T14:28:44;6.60;66.00
5779;DHT22;2916;49.798;10.022;2023-02-01T14:31:40;6.60;71.40
5779;DHT22;2916;49.798;10.022;2023-02-01T14:34:17;6.60;70.30
5779;DHT22;2916;49.798;10.022;2023-02-01T14:36:51;6.60;68.80
5779;DHT22;2916;49.798;10.022;2023-02-01T14:39:28;6.60;71.30
5779;DHT22;2916;49.798;10.022;2023-02-01T14:41:58;6.70;68.50
5779;DHT22;2916;49.798;10.022;2023-02-01T14:44:29;6.70;71.00
5779;DHT22;2916;49.798;10.022;2023-02-01T14:49:56;6.60;76.70
5779;DHT22;2916;49.798;10.022;2023-02-01T14:52:30;6.60;73.50
5779;DHT22;2916;49.798;10.022;2023-02-01T14:55:05;6.70;75.20
5779;DHT22;2916;49.798;10.022;2023-02-01T14:57:36;6.70;71.40
5779;DHT22;2916;49.798;10.022;2023-02-01T15:00:14;6.70;72.10
5779;DHT22;2916;49.798;10.022;2023-02-01T15:02:43;6.70;74.00
5779;DHT22;2916;49.798;10.022;2023-02-01T15:05:25;6.70;71.40
5779;DHT22;2916;49.798;10.022;2023-02-01T15:07:53;6.70;71.40
5779;DHT22;2916;49.798;10.022;2023-02-01T15:10:22;6.70;71.10
5779;DHT22;2916;49.798;10.022;2023-02-01T15:12:49;6.70;70.90
5779;DHT22;2916;49.798;10.022;2023-02-01T15:15:19;6.70;72.70
5779;DHT22;2916;49.798;10.022;2023-02-01T15:17:51;6.60;71.40
5779;DHT22;2916;49.798;10.022;2023-02-01T15:20:20;6.60;72.70
5779;DHT22;2916;49.798;10.022;2023-02-01T15:22:57;6.60;74.70
5779;DHT22;2916;49.798;10.022;2023-02-01T15:25:28;6.60;71.40
5779;DHT22;2916;49.798;10.022;2023-02-01T15:27:56;6.60;76.90
5779;DHT22;2916;49.798;10.022;2023-02-01T15:30:26;6.60;72.30
5779;DHT22;2916;49.798;10.022;2023-02-01T15:33:05;6.50;72.80
5779;DHT22;2916;49.798;10.022;2023-02-01T15:35:38;6.50;74.50
5779;DHT22;2916;49.798;10.022;2023-02-01T15:38:33;6.50;74.50
5779;DHT22;2916;49.798;10.022;2023-02-01T15:41:05;6.50;75.20
5779;DHT22;2916;49.798;10.022;2023-02-01T15:43:35;6.40;73.10
5779;DHT22;2916;49.798;10.022;2023-02-01T15:46:07;6.40;77.30
5779;DHT22;2916;49.798;10.022;2023-02-01T15:48:38;6.50;77.60
5779;DHT22;2916;49.798;10.022;2023-02-01T15:51:12;6.50;76.70
5779;DHT22;2916;49.798;10.022;2023-02-01T15:53:44;6.50;80.00
5779;DHT22;2916;49.798;10.022;2023-02-01T15:56:13;6.40;77.10
5779;DHT22;2916;49.798;10.022;2023-02-01T15:58:42;6.40;78.40
5779;DHT22;2916;49.798;10.022;2023-02-01T16:01:12;6.40;75.90
5779;DHT22;2916;49.798;10.022;2023-02-01T16:03:42;6.40;78.40
5779;DHT22;2916;49.798;10.022;2023-02-01T16:06:10;6.40;74.40
5779;DHT22;2916;49.798;10.022;2023-02-01T16:08:48;6.30;77.80
5779;DHT22;2916;49.798;10.022;2023-02-01T16:11:25;6.30;78.30
5779;DHT22;2916;49.798;10.022;2023-02-01T16:13:56;6.30;76.30
5779;DHT22;2916;49.798;10.022;2023-02-01T16:16:23;6.40;75.20
5779;DHT22;2916;49.798;10.022;2023-02-01T16:18:50;6.40;77.70
5779;DHT22;2916;49.798;10.022;2023-02-01T16:21:17;6.40;76.20
5779;DHT22;2916;49.798;10.022;2023-02-01T16:23:48;6.40;76.90
5779;DHT22;2916;49.798;10.022;2023-02-01T16:26:15;6.30;74.80
5779;DHT22;2916;49.798;10.022;2023-02-01T16:28:43;6.30;76.50
5779;DHT22;2916;49.798;10.022;2023-02-01T16:31:12;6.30;75.70
5779;DHT22;2916;49.798;10.022;2023-02-01T16:33:45;6.30;79.80
5779;DHT22;2916;49.798;10.022;2023-02-01T16:36:13;6.30;78.00
5779;DHT22;2916;49.798;10.022;2023-02-01T16:38:40;6.30;80.00
5779;DHT22;2916;49.798;10.022;2023-02-01T16:41:10;6.30;80.20
5779;DHT22;2916;49.798;10.022;2023-02-01T16:43:39;6.30;81.20
5779;DHT22;2916;49.798;10.022;2023-02-01T16:46:13;6.30;79.80
5779;DHT22;2916;49.798;10.022;2023-02-01T16:48:42;6.30;80.00
5779;DHT22;2916;49.798;10.022;2023-02-01T16:51:14;6.30;83.60
5779;DHT22;2916;49.798;10.022;2023-02-01T16:53:43;6.30;84.20
5779;DHT22;2916;49.798;10.022;2023-02-01T16:56:13;6.30;85.40
5779;DHT22;2916;49.798;10.022;2023-02-01T16:58:41;6.30;86.50
5779;DHT22;2916;49.798;10.022;2023-02-01T17:01:11;6.30;85.40
5779;DHT22;2916;49.798;10.022;2023-02-01T17:03:38;6.30;87.70
5779;DHT22;2916;49.798;10.022;2023-02-01T17:06:07;6.30;88.40
5779;DHT22;2916;49.798;10.022;2023-02-01T17:08:36;6.30;88.10